עמוד ראשי
METAR-TAF:

METAR-TAF

שדות תעופה :

Elim, אלסקה, ארצות הברית

קו רוחב: 64-36-54N, קו אורך: 162-16-14W, גובה: 49מטר

תצפית מזג אוויר נוכחית

הדו"ח נערך לפני 19דקות, בשעה 11:56 UTC
רוח 5קשר מכיוון צפון/צפון-מערב
טמפרטורת 12 צלסיוס
לחות 71%
לחץ 1018 hPa
ראות: 16.1קילומטר
מעונן בגובה 7000רגל

METAR: PFEL 201156Z AUTO 33005KT 10SM OVC070 12/07 A3005 RMK AO2 SLP175 6//// 7//// T01220072 10144 20117 51002 PNO $

זמן: 04:15 (12:15 UTC)


TAF: חסר

תצפיות ותחזיות מזג אוויר לגבי יותר מ- 4,000 שדות תעופה ברחבי העולם. דוחות METAR ו- TAF.

התחנות הזמינות מסומנות בנקודות צהובות ואדומות על גבי המפה.

העבר את העכבר לנקודה הצבעונית על מנת לראות את שם התחנה.

לאחר מכן, לחץ כדי לראות את תוכן ואת תחזיות מזג האוויר.

כדי לשנות את המפה: לחץ על הכפתורים הירוקים עם הפלוס השחור כדי להתקרב; על הכפתור הירוק עם המקף כדי להתרחק; או בחיצים הירוקים למפות סמוכות.


METAR-TAF: